sensor_id;sensor_type;location;lat;lon;timestamp;pressure;altitude;pressure_sealevel;temperature;humidity
72118;BME280;59992;47.490;8.736;2023-01-16T00:00:54;95691.58;;;1.60;80.84
72118;BME280;59992;47.490;8.736;2023-01-16T00:03:26;95685.64;;;1.54;80.94
72118;BME280;59992;47.490;8.736;2023-01-16T00:05:56;95682.93;;;1.44;81.61
72118;BME280;59992;47.490;8.736;2023-01-16T00:08:25;95678.75;;;1.31;82.91
72118;BME280;59992;47.490;8.736;2023-01-16T00:10:55;95662.96;;;1.23;82.07
72118;BME280;59992;47.490;8.736;2023-01-16T00:13:25;95660.09;;;1.11;83.51
72118;BME280;59992;47.490;8.736;2023-01-16T00:15:55;95652.17;;;1.08;83.59
72118;BME280;59992;47.490;8.736;2023-01-16T00:18:25;95652.69;;;1.05;83.49
72118;BME280;59992;47.490;8.736;2023-01-16T00:20:55;95645.95;;;0.96;84.03
72118;BME280;59992;47.490;8.736;2023-01-16T00:23:25;95646.89;;;0.91;84.75
72118;BME280;59992;47.490;8.736;2023-01-16T00:25:54;95642.81;;;0.81;85.11
72118;BME280;59992;47.490;8.736;2023-01-16T00:28:24;95636.98;;;0.69;85.81
72118;BME280;59992;47.490;8.736;2023-01-16T00:30:54;95631.61;;;0.61;86.44
72118;BME280;59992;47.490;8.736;2023-01-16T00:33:24;95622.47;;;0.53;86.77
72118;BME280;59992;47.490;8.736;2023-01-16T00:35:54;95618.51;;;0.47;86.58
72118;BME280;59992;47.490;8.736;2023-01-16T00:38:23;95616.91;;;0.40;87.35
72118;BME280;59992;47.490;8.736;2023-01-16T00:40:53;95612.40;;;0.43;86.80
72118;BME280;59992;47.490;8.736;2023-01-16T00:43:23;95610.36;;;0.42;87.33
72118;BME280;59992;47.490;8.736;2023-01-16T00:45:53;95603.94;;;0.39;87.15
72118;BME280;59992;47.490;8.736;2023-01-16T00:48:24;95591.66;;;0.37;86.57
72118;BME280;59992;47.490;8.736;2023-01-16T00:50:54;95590.33;;;0.36;87.30
72118;BME280;59992;47.490;8.736;2023-01-16T00:53:24;95583.73;;;0.32;87.43
72118;BME280;59992;47.490;8.736;2023-01-16T00:55:54;95579.66;;;0.29;87.72
72118;BME280;59992;47.490;8.736;2023-01-16T00:58:24;95570.36;;;0.27;87.10
72118;BME280;59992;47.490;8.736;2023-01-16T01:00:53;95562.11;;;0.25;87.26
72118;BME280;59992;47.490;8.736;2023-01-16T01:03:23;95554.04;;;0.21;88.12
72118;BME280;59992;47.490;8.736;2023-01-16T01:05:53;95547.12;;;0.20;87.00
72118;BME280;59992;47.490;8.736;2023-01-16T01:08:23;95535.48;;;0.22;86.97
72118;BME280;59992;47.490;8.736;2023-01-16T01:10:53;95535.40;;;0.18;88.08
72118;BME280;59992;47.490;8.736;2023-01-16T01:13:22;95532.21;;;0.18;87.66
72118;BME280;59992;47.490;8.736;2023-01-16T01:15:53;95528.76;;;0.17;88.08
72118;BME280;59992;47.490;8.736;2023-01-16T01:18:22;95527.31;;;0.14;87.92
72118;BME280;59992;47.490;8.736;2023-01-16T01:20:52;95530.82;;;0.08;87.84
72118;BME280;59992;47.490;8.736;2023-01-16T01:23:22;95526.36;;;0.09;87.83
72118;BME280;59992;47.490;8.736;2023-01-16T01:25:52;95523.65;;;0.08;87.29
72118;BME280;59992;47.490;8.736;2023-01-16T01:28:22;95518.14;;;0.12;88.17
72118;BME280;59992;47.490;8.736;2023-01-16T01:30:51;95511.55;;;0.11;87.70
72118;BME280;59992;47.490;8.736;2023-01-16T01:33:21;95507.00;;;0.08;87.79
72118;BME280;59992;47.490;8.736;2023-01-16T01:35:51;95502.48;;;0.05;88.63
72118;BME280;59992;47.490;8.736;2023-01-16T01:38:21;95493.54;;;0.02;89.29
72118;BME280;59992;47.490;8.736;2023-01-16T01:40:51;95487.38;;;-0.02;89.03
72118;BME280;59992;47.490;8.736;2023-01-16T01:43:21;95483.30;;;-0.06;88.91
72118;BME280;59992;47.490;8.736;2023-01-16T01:45:53;95480.27;;;-0.07;88.73
72118;BME280;59992;47.490;8.736;2023-01-16T01:48:26;95483.28;;;-0.08;89.01
72118;BME280;59992;47.490;8.736;2023-01-16T01:51:00;95471.46;;;-0.08;88.67
72118;BME280;59992;47.490;8.736;2023-01-16T01:53:35;95468.99;;;-0.10;88.90
72118;BME280;59992;47.490;8.736;2023-01-16T01:56:10;95463.13;;;-0.12;88.85
72118;BME280;59992;47.490;8.736;2023-01-16T01:58:44;95451.67;;;-0.16;88.41
72118;BME280;59992;47.490;8.736;2023-01-16T02:01:17;95431.80;;;-0.21;88.74
72118;BME280;59992;47.490;8.736;2023-01-16T02:03:50;95433.20;;;-0.13;88.15
72118;BME280;59992;47.490;8.736;2023-01-16T02:06:24;95416.13;;;-0.07;87.35
72118;BME280;59992;47.490;8.736;2023-01-16T02:08:57;95398.90;;;-0.04;86.58
72118;BME280;59992;47.490;8.736;2023-01-16T02:11:33;95394.84;;;0.04;85.42
72118;BME280;59992;47.490;8.736;2023-01-16T02:14:09;95389.04;;;0.12;85.50
72118;BME280;59992;47.490;8.736;2023-01-16T02:16:40;95382.66;;;0.18;85.39
72118;BME280;59992;47.490;8.736;2023-01-16T02:19:36;95374.84;;;0.25;83.86
72118;BME280;59992;47.490;8.736;2023-01-16T02:25:51;95362.06;;;0.34;84.20
72118;BME280;59992;47.490;8.736;2023-01-16T02:28:49;95345.70;;;0.35;84.46
72118;BME280;59992;47.490;8.736;2023-01-16T02:31:32;95331.23;;;0.36;85.18
72118;BME280;59992;47.490;8.736;2023-01-16T02:34:14;95323.10;;;0.36;85.09
72118;BME280;59992;47.490;8.736;2023-01-16T02:36:53;95311.66;;;0.37;82.63
72118;BME280;59992;47.490;8.736;2023-01-16T02:39:34;95313.21;;;0.42;83.08
72118;BME280;59992;47.490;8.736;2023-01-16T02:42:13;95303.08;;;0.41;84.58
72118;BME280;59992;47.490;8.736;2023-01-16T02:44:50;95295.04;;;0.42;84.29
72118;BME280;59992;47.490;8.736;2023-01-16T02:47:25;95288.92;;;0.41;84.57
72118;BME280;59992;47.490;8.736;2023-01-16T02:50:02;95282.55;;;0.40;84.24
72118;BME280;59992;47.490;8.736;2023-01-16T02:52:43;95274.52;;;0.38;83.27
72118;BME280;59992;47.490;8.736;2023-01-16T02:55:20;95261.54;;;0.37;82.99
72118;BME280;59992;47.490;8.736;2023-01-16T02:57:56;95247.75;;;0.36;82.37
72118;BME280;59992;47.490;8.736;2023-01-16T03:00:27;95240.33;;;0.40;81.57
72118;BME280;59992;47.490;8.736;2023-01-16T03:02:58;95220.45;;;0.38;81.95
72118;BME280;59992;47.490;8.736;2023-01-16T03:05:28;95222.80;;;0.44;81.15
72118;BME280;59992;47.490;8.736;2023-01-16T03:08:29;95224.48;;;0.46;82.88
72118;BME280;59992;47.490;8.736;2023-01-16T03:11:12;95215.28;;;0.44;84.44
72118;BME280;59992;47.490;8.736;2023-01-16T03:14:19;95202.41;;;0.39;84.75
72118;BME280;59992;47.490;8.736;2023-01-16T03:17:10;95186.77;;;0.29;86.01
72118;BME280;59992;47.490;8.736;2023-01-16T03:19:55;95177.04;;;0.24;85.99
72118;BME280;59992;47.490;8.736;2023-01-16T03:22:33;95173.67;;;0.19;86.43
72118;BME280;59992;47.490;8.736;2023-01-16T03:25:16;95167.14;;;0.15;86.38
72118;BME280;59992;47.490;8.736;2023-01-16T03:27:57;95164.27;;;0.10;86.51
72118;BME280;59992;47.490;8.736;2023-01-16T03:30:42;95159.08;;;0.06;86.74
72118;BME280;59992;47.490;8.736;2023-01-16T03:33:33;95147.31;;;0.01;87.23
72118;BME280;59992;47.490;8.736;2023-01-16T03:36:19;95140.41;;;-0.06;87.50
72118;BME280;59992;47.490;8.736;2023-01-16T03:39:03;95127.70;;;-0.13;87.78
72118;BME280;59992;47.490;8.736;2023-01-16T03:41:38;95119.11;;;-0.16;88.08
72118;BME280;59992;47.490;8.736;2023-01-16T03:44:21;95106.70;;;-0.21;88.14
72118;BME280;59992;47.490;8.736;2023-01-16T03:47:26;95098.95;;;-0.27;88.01
72118;BME280;59992;47.490;8.736;2023-01-16T03:50:12;95089.83;;;-0.33;88.08
72118;BME280;59992;47.490;8.736;2023-01-16T03:52:50;95078.48;;;-0.37;88.23
72118;BME280;59992;47.490;8.736;2023-01-16T03:55:30;95075.40;;;-0.35;88.46
72118;BME280;59992;47.490;8.736;2023-01-16T03:58:08;95067.61;;;-0.35;87.78
72118;BME280;59992;47.490;8.736;2023-01-16T04:00:48;95071.23;;;-0.33;87.12
72118;BME280;59992;47.490;8.736;2023-01-16T04:03:26;95059.48;;;-0.33;88.03
72118;BME280;59992;47.490;8.736;2023-01-16T04:05:59;95049.89;;;-0.35;87.75
72118;BME280;59992;47.490;8.736;2023-01-16T04:08:35;95042.29;;;-0.41;88.02
72118;BME280;59992;47.490;8.736;2023-01-16T04:11:06;95035.54;;;-0.46;88.06
72118;BME280;59992;47.490;8.736;2023-01-16T04:13:39;95025.26;;;-0.48;87.65
72118;BME280;59992;47.490;8.736;2023-01-16T04:16:14;95017.96;;;-0.54;88.09
72118;BME280;59992;47.490;8.736;2023-01-16T04:18:47;95009.51;;;-0.58;88.31
72118;BME280;59992;47.490;8.736;2023-01-16T04:21:18;95004.09;;;-0.63;88.63
72118;BME280;59992;47.490;8.736;2023-01-16T04:23:48;94994.68;;;-0.64;88.28
72118;BME280;59992;47.490;8.736;2023-01-16T04:26:18;94991.96;;;-0.69;89.36
72118;BME280;59992;47.490;8.736;2023-01-16T04:28:47;94992.20;;;-0.70;89.30
72118;BME280;59992;47.490;8.736;2023-01-16T04:31:22;94988.29;;;-0.72;87.81
72118;BME280;59992;47.490;8.736;2023-01-16T04:33:52;94978.30;;;-0.75;88.56
72118;BME280;59992;47.490;8.736;2023-01-16T04:36:22;94977.09;;;-0.78;89.00
72118;BME280;59992;47.490;8.736;2023-01-16T04:38:51;94967.60;;;-0.80;88.46
72118;BME280;59992;47.490;8.736;2023-01-16T04:41:21;94953.31;;;-0.83;87.23
72118;BME280;59992;47.490;8.736;2023-01-16T04:44:06;94947.95;;;-0.86;87.61
72118;BME280;59992;47.490;8.736;2023-01-16T04:46:36;94939.02;;;-0.89;89.22
72118;BME280;59992;47.490;8.736;2023-01-16T04:49:07;94932.36;;;-0.90;88.85
72118;BME280;59992;47.490;8.736;2023-01-16T04:51:37;94930.30;;;-0.93;87.75
72118;BME280;59992;47.490;8.736;2023-01-16T04:54:09;94922.66;;;-0.97;88.98
72118;BME280;59992;47.490;8.736;2023-01-16T04:56:43;94913.95;;;-1.00;88.83
72118;BME280;59992;47.490;8.736;2023-01-16T04:59:13;94906.95;;;-1.03;88.95
72118;BME280;59992;47.490;8.736;2023-01-16T05:01:43;94897.92;;;-1.07;89.86
72118;BME280;59992;47.490;8.736;2023-01-16T05:04:15;94889.33;;;-1.11;89.38
72118;BME280;59992;47.490;8.736;2023-01-16T05:06:44;94888.16;;;-1.13;90.45
72118;BME280;59992;47.490;8.736;2023-01-16T05:09:14;94881.83;;;-1.13;89.51
72118;BME280;59992;47.490;8.736;2023-01-16T05:11:46;94870.64;;;-1.15;89.97
72118;BME280;59992;47.490;8.736;2023-01-16T05:14:16;94856.83;;;-1.15;89.90
72118;BME280;59992;47.490;8.736;2023-01-16T05:16:46;94852.99;;;-1.17;89.77
72118;BME280;59992;47.490;8.736;2023-01-16T05:19:16;94839.73;;;-1.20;89.81
72118;BME280;59992;47.490;8.736;2023-01-16T05:21:46;94832.48;;;-1.25;89.99
72118;BME280;59992;47.490;8.736;2023-01-16T05:24:16;94825.77;;;-1.28;89.38
72118;BME280;59992;47.490;8.736;2023-01-16T05:26:46;94819.08;;;-1.34;90.37
72118;BME280;59992;47.490;8.736;2023-01-16T05:29:16;94813.10;;;-1.35;90.69
72118;BME280;59992;47.490;8.736;2023-01-16T05:31:46;94806.02;;;-1.34;90.28
72118;BME280;59992;47.490;8.736;2023-01-16T05:34:15;94798.09;;;-1.35;88.97
72118;BME280;59992;47.490;8.736;2023-01-16T05:36:45;94788.14;;;-1.38;89.91
72118;BME280;59992;47.490;8.736;2023-01-16T05:39:15;94776.12;;;-1.38;89.64
72118;BME280;59992;47.490;8.736;2023-01-16T05:41:44;94770.73;;;-1.39;89.76
72118;BME280;59992;47.490;8.736;2023-01-16T05:44:14;94766.95;;;-1.42;89.48
72118;BME280;59992;47.490;8.736;2023-01-16T05:46:44;94761.41;;;-1.46;90.05
72118;BME280;59992;47.490;8.736;2023-01-16T05:49:13;94756.70;;;-1.44;89.22
72118;BME280;59992;47.490;8.736;2023-01-16T05:51:43;94751.48;;;-1.45;89.68
72118;BME280;59992;47.490;8.736;2023-01-16T05:54:14;94755.13;;;-1.42;89.18
72118;BME280;59992;47.490;8.736;2023-01-16T05:56:43;94748.44;;;-1.43;90.03
72118;BME280;59992;47.490;8.736;2023-01-16T05:59:13;94741.94;;;-1.47;90.27
72118;BME280;59992;47.490;8.736;2023-01-16T06:01:43;94732.94;;;-1.50;90.56
72118;BME280;59992;47.490;8.736;2023-01-16T06:04:13;94722.34;;;-1.52;90.74
72118;BME280;59992;47.490;8.736;2023-01-16T06:06:42;94707.23;;;-1.53;90.53
72118;BME280;59992;47.490;8.736;2023-01-16T06:09:12;94696.94;;;-1.55;90.59
72118;BME280;59992;47.490;8.736;2023-01-16T06:11:43;94696.10;;;-1.56;90.82
72118;BME280;59992;47.490;8.736;2023-01-16T06:14:13;94686.50;;;-1.54;90.25
72118;BME280;59992;47.490;8.736;2023-01-16T06:16:43;94677.30;;;-1.51;89.59
72118;BME280;59992;47.490;8.736;2023-01-16T06:19:13;94665.75;;;-1.50;89.08
72118;BME280;59992;47.490;8.736;2023-01-16T06:21:43;94651.87;;;-1.50;90.74
72118;BME280;59992;47.490;8.736;2023-01-16T06:24:12;94641.10;;;-1.51;89.75
72118;BME280;59992;47.490;8.736;2023-01-16T06:26:43;94635.02;;;-1.51;89.99
72118;BME280;59992;47.490;8.736;2023-01-16T06:29:15;94627.36;;;-1.51;90.39
72118;BME280;59992;47.490;8.736;2023-01-16T06:31:45;94615.38;;;-1.55;90.26
72118;BME280;59992;47.490;8.736;2023-01-16T06:34:15;94610.31;;;-1.56;91.37
72118;BME280;59992;47.490;8.736;2023-01-16T06:36:45;94605.75;;;-1.55;91.63
72118;BME280;59992;47.490;8.736;2023-01-16T06:39:17;94597.16;;;-1.53;91.38
72118;BME280;59992;47.490;8.736;2023-01-16T06:41:46;94589.96;;;-1.51;91.53
72118;BME280;59992;47.490;8.736;2023-01-16T06:44:17;94578.02;;;-1.45;91.46
72118;BME280;59992;47.490;8.736;2023-01-16T06:46:47;94560.42;;;-1.39;90.76
72118;BME280;59992;47.490;8.736;2023-01-16T06:49:17;94557.17;;;-1.35;90.97
72118;BME280;59992;47.490;8.736;2023-01-16T06:51:47;94565.75;;;-1.31;91.04
72118;BME280;59992;47.490;8.736;2023-01-16T06:54:17;94557.81;;;-1.28;90.75
72118;BME280;59992;47.490;8.736;2023-01-16T06:56:46;94555.48;;;-1.26;91.27
72118;BME280;59992;47.490;8.736;2023-01-16T06:59:16;94553.93;;;-1.26;90.69
72118;BME280;59992;47.490;8.736;2023-01-16T07:01:47;94559.52;;;-1.25;90.90
72118;BME280;59992;47.490;8.736;2023-01-16T07:04:16;94560.25;;;-1.23;90.28
72118;BME280;59992;47.490;8.736;2023-01-16T07:06:46;94555.69;;;-1.21;90.50
72118;BME280;59992;47.490;8.736;2023-01-16T07:09:17;94551.55;;;-1.20;89.91
72118;BME280;59992;47.490;8.736;2023-01-16T07:11:48;94543.49;;;-1.25;90.05
72118;BME280;59992;47.490;8.736;2023-01-16T07:14:17;94544.27;;;-1.29;90.35
72118;BME280;59992;47.490;8.736;2023-01-16T07:17:05;94542.75;;;-1.27;90.14
72118;BME280;59992;47.490;8.736;2023-01-16T07:19:52;94536.13;;;-1.28;89.71
72118;BME280;59992;47.490;8.736;2023-01-16T07:22:39;94535.26;;;-1.30;89.80
72118;BME280;59992;47.490;8.736;2023-01-16T07:25:14;94523.11;;;-1.30;89.64
72118;BME280;59992;47.490;8.736;2023-01-16T07:27:46;94507.42;;;-1.33;89.01
72118;BME280;59992;47.490;8.736;2023-01-16T07:30:18;94507.14;;;-1.32;88.85
72118;BME280;59992;47.490;8.736;2023-01-16T07:32:49;94506.41;;;-1.35;89.30
72118;BME280;59992;47.490;8.736;2023-01-16T07:35:19;94505.59;;;-1.35;90.29
72118;BME280;59992;47.490;8.736;2023-01-16T07:37:48;94497.41;;;-1.32;89.71
72118;BME280;59992;47.490;8.736;2023-01-16T07:40:19;94486.30;;;-1.34;89.53
72118;BME280;59992;47.490;8.736;2023-01-16T07:42:51;94485.13;;;-1.34;89.81
72118;BME280;59992;47.490;8.736;2023-01-16T07:45:21;94481.27;;;-1.31;91.33
72118;BME280;59992;47.490;8.736;2023-01-16T07:47:51;94476.70;;;-1.23;91.02
72118;BME280;59992;47.490;8.736;2023-01-16T07:50:20;94468.70;;;-1.19;89.97
72118;BME280;59992;47.490;8.736;2023-01-16T07:52:52;94459.85;;;-1.20;89.62
72118;BME280;59992;47.490;8.736;2023-01-16T07:55:22;94451.56;;;-1.16;89.38
72118;BME280;59992;47.490;8.736;2023-01-16T07:57:52;94426.02;;;-1.19;88.59
72118;BME280;59992;47.490;8.736;2023-01-16T08:00:22;94408.76;;;-1.20;88.90
72118;BME280;59992;47.490;8.736;2023-01-16T08:02:52;94407.59;;;-1.20;88.93
72118;BME280;59992;47.490;8.736;2023-01-16T08:05:22;94406.25;;;-1.16;88.86
72118;BME280;59992;47.490;8.736;2023-01-16T08:07:51;94400.81;;;-1.13;90.13
72118;BME280;59992;47.490;8.736;2023-01-16T08:10:21;94404.55;;;-1.05;91.19
72118;BME280;59992;47.490;8.736;2023-01-16T08:12:50;94415.42;;;-0.98;90.88
72118;BME280;59992;47.490;8.736;2023-01-16T08:15:20;94418.27;;;-0.89;91.27
72118;BME280;59992;47.490;8.736;2023-01-16T08:17:50;94418.21;;;-0.77;90.16
72118;BME280;59992;47.490;8.736;2023-01-16T08:20:20;94416.02;;;-0.69;89.73
72118;BME280;59992;47.490;8.736;2023-01-16T08:22:51;94404.65;;;-0.62;89.91
72118;BME280;59992;47.490;8.736;2023-01-16T08:25:23;94398.70;;;-0.55;90.31
72118;BME280;59992;47.490;8.736;2023-01-16T08:27:52;94406.62;;;-0.45;90.45
72118;BME280;59992;47.490;8.736;2023-01-16T08:30:23;94418.29;;;-0.37;89.71
72118;BME280;59992;47.490;8.736;2023-01-16T08:32:58;94412.85;;;-0.30;89.73
72118;BME280;59992;47.490;8.736;2023-01-16T08:35:28;94412.67;;;-0.20;89.69
72118;BME280;59992;47.490;8.736;2023-01-16T08:37:58;94420.69;;;-0.13;88.85
72118;BME280;59992;47.490;8.736;2023-01-16T08:40:27;94413.60;;;-0.06;89.03
72118;BME280;59992;47.490;8.736;2023-01-16T08:42:58;94406.50;;;0.05;88.47
72118;BME280;59992;47.490;8.736;2023-01-16T08:45:45;94400.59;;;0.20;87.46
72118;BME280;59992;47.490;8.736;2023-01-16T08:48:34;94387.77;;;0.33;87.57
72118;BME280;59992;47.490;8.736;2023-01-16T08:51:22;94384.39;;;0.44;86.98
72118;BME280;59992;47.490;8.736;2023-01-16T08:53:54;94383.68;;;0.47;85.79
72118;BME280;59992;47.490;8.736;2023-01-16T08:56:25;94376.02;;;0.47;85.91
72118;BME280;59992;47.490;8.736;2023-01-16T08:58:54;94390.03;;;0.48;87.04
72118;BME280;59992;47.490;8.736;2023-01-16T09:01:26;94386.05;;;0.51;86.83
72118;BME280;59992;47.490;8.736;2023-01-16T09:03:57;94391.55;;;0.59;86.02
72118;BME280;59992;47.490;8.736;2023-01-16T09:06:26;94383.39;;;0.52;85.27
72118;BME280;59992;47.490;8.736;2023-01-16T09:08:56;94394.35;;;0.63;85.68
72118;BME280;59992;47.490;8.736;2023-01-16T09:11:26;94393.26;;;0.69;85.74
72118;BME280;59992;47.490;8.736;2023-01-16T09:14:14;94407.23;;;0.76;85.32
72118;BME280;59992;47.490;8.736;2023-01-16T09:16:43;94395.52;;;0.86;85.39
72118;BME280;59992;47.490;8.736;2023-01-16T09:19:13;94387.68;;;0.95;85.40
72118;BME280;59992;47.490;8.736;2023-01-16T09:21:43;94411.17;;;1.02;84.66
72118;BME280;59992;47.490;8.736;2023-01-16T09:24:12;94415.81;;;1.09;84.93
72118;BME280;59992;47.490;8.736;2023-01-16T09:26:42;94418.42;;;1.19;85.06
72118;BME280;59992;47.490;8.736;2023-01-16T09:29:12;94419.33;;;1.26;84.82
72118;BME280;59992;47.490;8.736;2023-01-16T09:31:42;94411.36;;;1.32;82.75
72118;BME280;59992;47.490;8.736;2023-01-16T09:34:12;94396.02;;;1.39;82.68
72118;BME280;59992;47.490;8.736;2023-01-16T09:36:42;94390.77;;;1.48;83.18
72118;BME280;59992;47.490;8.736;2023-01-16T09:39:12;94387.45;;;1.52;82.20
72118;BME280;59992;47.490;8.736;2023-01-16T09:41:50;94395.83;;;1.53;81.83
72118;BME280;59992;47.490;8.736;2023-01-16T09:44:44;94393.89;;;1.54;82.12
72118;BME280;59992;47.490;8.736;2023-01-16T09:47:15;94401.10;;;1.58;82.09
72118;BME280;59992;47.490;8.736;2023-01-16T09:49:50;94400.13;;;1.63;82.44
72118;BME280;59992;47.490;8.736;2023-01-16T09:52:26;94396.64;;;1.65;82.12
72118;BME280;59992;47.490;8.736;2023-01-16T09:55:21;94392.80;;;1.70;82.14
72118;BME280;59992;47.490;8.736;2023-01-16T09:58:14;94385.12;;;1.70;81.29
72118;BME280;59992;47.490;8.736;2023-01-16T10:01:06;94388.09;;;1.75;81.55
72118;BME280;59992;47.490;8.736;2023-01-16T10:03:37;94388.77;;;1.75;81.32
72118;BME280;59992;47.490;8.736;2023-01-16T10:06:18;94379.04;;;1.79;80.96
72118;BME280;59992;47.490;8.736;2023-01-16T10:09:01;94377.45;;;1.77;80.22
72118;BME280;59992;47.490;8.736;2023-01-16T10:11:36;94369.23;;;1.77;81.26
72118;BME280;59992;47.490;8.736;2023-01-16T10:14:22;94363.23;;;1.75;80.86
72118;BME280;59992;47.490;8.736;2023-01-16T10:17:03;94356.64;;;1.72;81.50
72118;BME280;59992;47.490;8.736;2023-01-16T10:19:46;94349.23;;;1.77;81.90
72118;BME280;59992;47.490;8.736;2023-01-16T10:22:35;94339.95;;;1.80;81.87
72118;BME280;59992;47.490;8.736;2023-01-16T10:25:19;94334.65;;;1.80;82.78
72118;BME280;59992;47.490;8.736;2023-01-16T10:28:01;94316.52;;;1.88;82.34
72118;BME280;59992;47.490;8.736;2023-01-16T10:30:38;94317.23;;;1.94;81.24
72118;BME280;59992;47.490;8.736;2023-01-16T10:33:26;94314.45;;;1.99;80.03
72118;BME280;59992;47.490;8.736;2023-01-16T10:36:01;94313.46;;;2.06;79.81
72118;BME280;59992;47.490;8.736;2023-01-16T10:38:39;94301.70;;;2.10;78.28
72118;BME280;59992;47.490;8.736;2023-01-16T10:41:19;94304.16;;;2.17;79.80
72118;BME280;59992;47.490;8.736;2023-01-16T10:44:27;94311.94;;;2.29;79.45
72118;BME280;59992;47.490;8.736;2023-01-16T10:47:19;94302.53;;;2.39;77.78
72118;BME280;59992;47.490;8.736;2023-01-16T10:50:10;94293.85;;;2.49;78.23
72118;BME280;59992;47.490;8.736;2023-01-16T10:52:41;94290.09;;;2.53;76.65
72118;BME280;59992;47.490;8.736;2023-01-16T10:55:12;94279.58;;;2.57;76.47
72118;BME280;59992;47.490;8.736;2023-01-16T10:57:47;94261.50;;;2.57;75.71
72118;BME280;59992;47.490;8.736;2023-01-16T11:00:21;94252.66;;;2.55;75.63
72118;BME280;59992;47.490;8.736;2023-01-16T11:02:59;94248.74;;;2.49;74.81
72118;BME280;59992;47.490;8.736;2023-01-16T11:05:33;94252.34;;;2.52;74.36
72118;BME280;59992;47.490;8.736;2023-01-16T11:08:11;94255.59;;;2.58;76.93
72118;BME280;59992;47.490;8.736;2023-01-16T11:10:43;94250.23;;;2.60;75.78
72118;BME280;59992;47.490;8.736;2023-01-16T11:13:17;94252.48;;;2.64;76.12
72118;BME280;59992;47.490;8.736;2023-01-16T11:16:20;94239.67;;;2.74;75.93
72118;BME280;59992;47.490;8.736;2023-01-16T11:19:20;94230.45;;;2.82;74.92
72118;BME280;59992;47.490;8.736;2023-01-16T11:21:53;94226.96;;;2.88;75.57
72118;BME280;59992;47.490;8.736;2023-01-16T11:24:30;94215.41;;;2.96;75.62
72118;BME280;59992;47.490;8.736;2023-01-16T11:27:03;94203.33;;;3.02;74.68
72118;BME280;59992;47.490;8.736;2023-01-16T11:29:38;94202.23;;;3.05;74.85
72118;BME280;59992;47.490;8.736;2023-01-16T11:32:13;94204.92;;;3.11;74.56
72118;BME280;59992;47.490;8.736;2023-01-16T11:34:46;94212.71;;;3.13;74.02
72118;BME280;59992;47.490;8.736;2023-01-16T11:37:17;94206.06;;;3.17;74.05
72118;BME280;59992;47.490;8.736;2023-01-16T11:39:50;94198.67;;;3.19;73.98
72118;BME280;59992;47.490;8.736;2023-01-16T11:42:20;94197.63;;;3.24;74.24
72118;BME280;59992;47.490;8.736;2023-01-16T11:45:15;94203.10;;;3.26;73.20
72118;BME280;59992;47.490;8.736;2023-01-16T11:48:07;94219.73;;;3.37;72.68
72118;BME280;59992;47.490;8.736;2023-01-16T11:51:17;94207.11;;;3.46;72.85
72118;BME280;59992;47.490;8.736;2023-01-16T11:53:48;94195.59;;;3.52;73.30
72118;BME280;59992;47.490;8.736;2023-01-16T11:56:43;94193.42;;;3.51;70.91
72118;BME280;59992;47.490;8.736;2023-01-16T12:02:22;94169.40;;;3.53;68.90
72118;BME280;59992;47.490;8.736;2023-01-16T12:05:07;94177.48;;;3.50;67.16
72118;BME280;59992;47.490;8.736;2023-01-16T12:08:15;94169.32;;;3.47;66.71
72118;BME280;59992;47.490;8.736;2023-01-16T12:10:56;94146.88;;;3.41;65.16
72118;BME280;59992;47.490;8.736;2023-01-16T12:13:34;94146.05;;;3.39;64.45
72118;BME280;59992;47.490;8.736;2023-01-16T12:16:38;94142.23;;;3.34;64.71
72118;BME280;59992;47.490;8.736;2023-01-16T12:19:28;94130.64;;;3.37;64.99
72118;BME280;59992;47.490;8.736;2023-01-16T12:22:15;94130.27;;;3.34;63.40
72118;BME280;59992;47.490;8.736;2023-01-16T12:24:50;94117.11;;;3.42;64.61
72118;BME280;59992;47.490;8.736;2023-01-16T12:27:43;94102.73;;;3.40;64.12
72118;BME280;59992;47.490;8.736;2023-01-16T12:30:25;94094.95;;;3.49;64.70
72118;BME280;59992;47.490;8.736;2023-01-16T12:33:11;94088.81;;;3.64;65.75
72118;BME280;59992;47.490;8.736;2023-01-16T12:35:55;94079.59;;;3.79;67.49
72118;BME280;59992;47.490;8.736;2023-01-16T12:38:35;94076.87;;;3.92;68.61
72118;BME280;59992;47.490;8.736;2023-01-16T12:41:17;94078.64;;;4.04;68.50
72118;BME280;59992;47.490;8.736;2023-01-16T12:44:17;94086.62;;;4.17;69.02
72118;BME280;59992;47.490;8.736;2023-01-16T12:46:56;94079.84;;;4.27;68.34
72118;BME280;59992;47.490;8.736;2023-01-16T12:49:39;94064.66;;;4.41;68.74
72118;BME280;59992;47.490;8.736;2023-01-16T12:52:30;94067.12;;;4.59;68.86
72118;BME280;59992;47.490;8.736;2023-01-16T12:55:18;94059.54;;;4.75;67.55
72118;BME280;59992;47.490;8.736;2023-01-16T12:57:59;94048.31;;;4.87;66.92
72118;BME280;59992;47.490;8.736;2023-01-16T13:00:36;94028.89;;;4.99;61.84
72118;BME280;59992;47.490;8.736;2023-01-16T13:03:17;94017.66;;;5.14;63.76
72118;BME280;59992;47.490;8.736;2023-01-16T13:05:53;94014.38;;;5.30;65.35
72118;BME280;59992;47.490;8.736;2023-01-16T13:08:27;94001.58;;;5.44;64.16
72118;BME280;59992;47.490;8.736;2023-01-16T13:11:07;93995.00;;;5.49;62.50
72118;BME280;59992;47.490;8.736;2023-01-16T13:14:01;93994.05;;;5.55;64.08
72118;BME280;59992;47.490;8.736;2023-01-16T13:16:36;93977.80;;;5.58;60.36
72118;BME280;59992;47.490;8.736;2023-01-16T13:19:12;93975.28;;;5.63;63.62
72118;BME280;59992;47.490;8.736;2023-01-16T13:21:52;93971.71;;;5.67;62.13
72118;BME280;59992;47.490;8.736;2023-01-16T13:24:29;93968.46;;;5.62;57.93
72118;BME280;59992;47.490;8.736;2023-01-16T13:27:03;93962.48;;;5.66;62.23
72118;BME280;59992;47.490;8.736;2023-01-16T13:29:39;93954.52;;;5.67;63.33
72118;BME280;59992;47.490;8.736;2023-01-16T13:32:21;93957.73;;;5.60;59.87
72118;BME280;59992;47.490;8.736;2023-01-16T13:34:55;93956.57;;;5.58;61.24
72118;BME280;59992;47.490;8.736;2023-01-16T13:40:53;93956.27;;;5.56;62.01
72118;BME280;59992;47.490;8.736;2023-01-16T13:43:34;93956.81;;;5.55;63.21
72118;BME280;59992;47.490;8.736;2023-01-16T13:46:25;93957.43;;;5.53;64.07
72118;BME280;59992;47.490;8.736;2023-01-16T13:48:59;93953.35;;;5.49;61.95
72118;BME280;59992;47.490;8.736;2023-01-16T13:51:30;93951.56;;;5.48;62.31
72118;BME280;59992;47.490;8.736;2023-01-16T13:54:01;93945.63;;;5.49;64.34
72118;BME280;59992;47.490;8.736;2023-01-16T13:56:33;93942.76;;;5.49;64.04
72118;BME280;59992;47.490;8.736;2023-01-16T13:59:05;93944.84;;;5.52;63.69
72118;BME280;59992;47.490;8.736;2023-01-16T14:01:52;93934.42;;;5.56;65.43